North Thompsonville, Connecticut
Current Conditions -  °F | °C
As of 1:51 PM on Friday 24 Oct 2014 (Local Time) from KBDL Reporting Station
Broken Clouds Broken Clouds  
Wind Chill: 56°   Ceiling: 3200
Heat Index: 56°   Visibility: 10mi
Dew Point: 41°   Wind: 15mph
Humidity: 57%   Direction: 340°NNW
Pressure: 29.72"   Gusts: 23mph
Location:  41.9843°N, 72.5534°W
Report Text: KBDL 241751Z 34013G20KT 10SM BKN032 13/05 A2972 RMK AO2 SLP064 60002 T01330050 10144 20089 58015
Loading
Personal Weather Stations






























Interactive Weather Map
Tropical Storm Tracking
New forecast layout! Learn more

10-Day Weather Forecast

Advertisements
Track Severe Weather on mobile